sensor_id;sensor_type;location;lat;lon;timestamp;pressure;altitude;pressure_sealevel;temperature;humidity
48968;BME280;46511;53.148;8.204;2023-10-08T00:01:58;102211.66;;;15.07;100.00
48968;BME280;46511;53.148;8.204;2023-10-08T00:04:24;102215.88;;;15.11;100.00
48968;BME280;46511;53.148;8.204;2023-10-08T00:06:51;102227.88;;;15.37;100.00
48968;BME280;46511;53.148;8.204;2023-10-08T00:09:18;102223.72;;;15.32;100.00
48968;BME280;46511;53.148;8.204;2023-10-08T00:11:51;102224.56;;;15.32;100.00
48968;BME280;46511;53.148;8.204;2023-10-08T00:14:25;102239.59;;;15.02;100.00
48968;BME280;46511;53.148;8.204;2023-10-08T00:16:56;102245.50;;;14.91;100.00
48968;BME280;46511;53.148;8.204;2023-10-08T00:19:27;102243.97;;;15.20;100.00
48968;BME280;46511;53.148;8.204;2023-10-08T00:22:06;102255.16;;;15.44;100.00
48968;BME280;46511;53.148;8.204;2023-10-08T00:24:57;102257.44;;;15.52;100.00
48968;BME280;46511;53.148;8.204;2023-10-08T00:27:24;102247.50;;;15.38;100.00
48968;BME280;46511;53.148;8.204;2023-10-08T00:29:56;102240.91;;;15.61;100.00
48968;BME280;46511;53.148;8.204;2023-10-08T00:32:28;102250.25;;;15.69;100.00
48968;BME280;46511;53.148;8.204;2023-10-08T00:34:59;102240.22;;;15.40;100.00
48968;BME280;46511;53.148;8.204;2023-10-08T00:37:26;102242.09;;;15.55;100.00
48968;BME280;46511;53.148;8.204;2023-10-08T00:39:53;102247.97;;;15.29;100.00
48968;BME280;46511;53.148;8.204;2023-10-08T00:42:27;102262.47;;;15.58;100.00
48968;BME280;46511;53.148;8.204;2023-10-08T00:44:59;102266.22;;;15.38;100.00
48968;BME280;46511;53.148;8.204;2023-10-08T00:47:33;102269.66;;;15.57;100.00
48968;BME280;46511;53.148;8.204;2023-10-08T00:50:08;102255.63;;;15.52;100.00
48968;BME280;46511;53.148;8.204;2023-10-08T00:52:41;102264.59;;;15.68;100.00
48968;BME280;46511;53.148;8.204;2023-10-08T00:55:28;102261.31;;;15.63;100.00
48968;BME280;46511;53.148;8.204;2023-10-08T00:58:00;102268.06;;;15.70;100.00
48968;BME280;46511;53.148;8.204;2023-10-08T01:00:40;102267.28;;;15.35;100.00
48968;BME280;46511;53.148;8.204;2023-10-08T01:03:12;102261.63;;;15.57;100.00
48968;BME280;46511;53.148;8.204;2023-10-08T01:05:47;102269.78;;;15.71;100.00
48968;BME280;46511;53.148;8.204;2023-10-08T01:08:13;102279.81;;;15.68;100.00
48968;BME280;46511;53.148;8.204;2023-10-08T01:10:44;102264.38;;;15.56;100.00
48968;BME280;46511;53.148;8.204;2023-10-08T01:13:18;102261.91;;;15.35;100.00
48968;BME280;46511;53.148;8.204;2023-10-08T01:15:47;102254.69;;;15.53;100.00
48968;BME280;46511;53.148;8.204;2023-10-08T01:18:21;102253.19;;;15.65;100.00
48968;BME280;46511;53.148;8.204;2023-10-08T01:21:02;102254.66;;;15.70;100.00
48968;BME280;46511;53.148;8.204;2023-10-08T01:23:44;102252.84;;;15.71;100.00
48968;BME280;46511;53.148;8.204;2023-10-08T01:26:19;102259.06;;;15.71;100.00
48968;BME280;46511;53.148;8.204;2023-10-08T01:28:54;102259.50;;;15.64;100.00
48968;BME280;46511;53.148;8.204;2023-10-08T01:31:25;102251.66;;;15.77;100.00
48968;BME280;46511;53.148;8.204;2023-10-08T01:33:57;102253.38;;;15.78;100.00
48968;BME280;46511;53.148;8.204;2023-10-08T01:36:26;102258.75;;;15.78;100.00
48968;BME280;46511;53.148;8.204;2023-10-08T01:38:59;102257.00;;;15.77;100.00
48968;BME280;46511;53.148;8.204;2023-10-08T01:41:33;102275.00;;;15.75;100.00
48968;BME280;46511;53.148;8.204;2023-10-08T01:44:04;102270.50;;;15.58;100.00
48968;BME280;46511;53.148;8.204;2023-10-08T01:46:39;102267.16;;;15.54;100.00
48968;BME280;46511;53.148;8.204;2023-10-08T01:49:08;102259.25;;;15.68;100.00
48968;BME280;46511;53.148;8.204;2023-10-08T01:51:45;102257.53;;;15.67;100.00
48968;BME280;46511;53.148;8.204;2023-10-08T01:54:21;102251.34;;;15.83;100.00
48968;BME280;46511;53.148;8.204;2023-10-08T01:56:52;102248.38;;;15.87;100.00
48968;BME280;46511;53.148;8.204;2023-10-08T01:59:24;102247.53;;;15.87;100.00
48968;BME280;46511;53.148;8.204;2023-10-08T02:01:50;102257.47;;;15.85;100.00
48968;BME280;46511;53.148;8.204;2023-10-08T02:04:26;102275.63;;;15.62;100.00
48968;BME280;46511;53.148;8.204;2023-10-08T02:06:52;102270.22;;;15.64;100.00
48968;BME280;46511;53.148;8.204;2023-10-08T02:09:24;102268.41;;;15.80;100.00
48968;BME280;46511;53.148;8.204;2023-10-08T02:11:52;102280.69;;;15.68;100.00
48968;BME280;46511;53.148;8.204;2023-10-08T02:14:24;102286.50;;;15.59;100.00
48968;BME280;46511;53.148;8.204;2023-10-08T02:16:51;102283.81;;;15.59;100.00
48968;BME280;46511;53.148;8.204;2023-10-08T02:19:22;102277.88;;;15.54;100.00
48968;BME280;46511;53.148;8.204;2023-10-08T02:21:55;102276.72;;;15.76;100.00
48968;BME280;46511;53.148;8.204;2023-10-08T02:24:24;102263.91;;;15.81;100.00
48968;BME280;46511;53.148;8.204;2023-10-08T02:26:51;102271.50;;;15.73;100.00
48968;BME280;46511;53.148;8.204;2023-10-08T02:29:26;102274.50;;;15.84;100.00
48968;BME280;46511;53.148;8.204;2023-10-08T02:32:00;102282.22;;;15.73;100.00
48968;BME280;46511;53.148;8.204;2023-10-08T02:34:27;102290.13;;;15.58;100.00
48968;BME280;46511;53.148;8.204;2023-10-08T02:36:58;102296.00;;;15.14;100.00
48968;BME280;46511;53.148;8.204;2023-10-08T02:39:30;102302.47;;;15.28;100.00
48968;BME280;46511;53.148;8.204;2023-10-08T02:42:03;102313.00;;;15.31;100.00
48968;BME280;46511;53.148;8.204;2023-10-08T02:44:41;102312.69;;;15.37;100.00
48968;BME280;46511;53.148;8.204;2023-10-08T02:47:08;102308.34;;;15.52;100.00
48968;BME280;46511;53.148;8.204;2023-10-08T02:49:43;102310.31;;;15.48;100.00
48968;BME280;46511;53.148;8.204;2023-10-08T02:52:10;102318.84;;;15.22;100.00
48968;BME280;46511;53.148;8.204;2023-10-08T02:54:42;102333.00;;;15.06;100.00
48968;BME280;46511;53.148;8.204;2023-10-08T02:57:08;102335.56;;;14.73;100.00
48968;BME280;46511;53.148;8.204;2023-10-08T02:59:45;102333.47;;;15.14;100.00
48968;BME280;46511;53.148;8.204;2023-10-08T03:02:16;102331.44;;;15.20;100.00
48968;BME280;46511;53.148;8.204;2023-10-08T03:04:52;102326.69;;;15.25;100.00
48968;BME280;46511;53.148;8.204;2023-10-08T03:07:19;102329.25;;;15.28;100.00
48968;BME280;46511;53.148;8.204;2023-10-08T03:09:49;102335.94;;;15.19;100.00
48968;BME280;46511;53.148;8.204;2023-10-08T03:12:21;102338.69;;;15.00;100.00
48968;BME280;46511;53.148;8.204;2023-10-08T03:14:51;102341.53;;;14.97;100.00
48968;BME280;46511;53.148;8.204;2023-10-08T03:17:41;102335.47;;;15.11;100.00
48968;BME280;46511;53.148;8.204;2023-10-08T03:20:22;102341.19;;;15.03;100.00
48968;BME280;46511;53.148;8.204;2023-10-08T03:23:10;102346.16;;;14.94;100.00
48968;BME280;46511;53.148;8.204;2023-10-08T03:25:59;102357.09;;;15.06;100.00
48968;BME280;46511;53.148;8.204;2023-10-08T03:28:28;102371.59;;;15.20;100.00
48968;BME280;46511;53.148;8.204;2023-10-08T03:31:04;102375.72;;;15.27;100.00
48968;BME280;46511;53.148;8.204;2023-10-08T03:33:35;102375.53;;;15.30;100.00
48968;BME280;46511;53.148;8.204;2023-10-08T03:36:08;102379.66;;;15.37;100.00
48968;BME280;46511;53.148;8.204;2023-10-08T03:38:51;102384.19;;;15.35;100.00
48968;BME280;46511;53.148;8.204;2023-10-08T03:41:21;102382.41;;;15.18;100.00
48968;BME280;46511;53.148;8.204;2023-10-08T03:43:53;102384.69;;;15.26;100.00
48968;BME280;46511;53.148;8.204;2023-10-08T03:46:32;102387.00;;;15.14;100.00
48968;BME280;46511;53.148;8.204;2023-10-08T03:49:13;102376.72;;;15.07;100.00
48968;BME280;46511;53.148;8.204;2023-10-08T03:51:53;102374.75;;;15.10;100.00
48968;BME280;46511;53.148;8.204;2023-10-08T03:54:28;102385.28;;;14.77;100.00
48968;BME280;46511;53.148;8.204;2023-10-08T03:57:06;102392.94;;;14.85;100.00
48968;BME280;46511;53.148;8.204;2023-10-08T03:59:44;102390.00;;;14.91;100.00
48968;BME280;46511;53.148;8.204;2023-10-08T04:02:19;102401.31;;;14.96;100.00
48968;BME280;46511;53.148;8.204;2023-10-08T04:05:03;102410.94;;;15.00;100.00
48968;BME280;46511;53.148;8.204;2023-10-08T04:07:49;102405.44;;;15.03;100.00
48968;BME280;46511;53.148;8.204;2023-10-08T04:10:29;102393.47;;;15.10;100.00
48968;BME280;46511;53.148;8.204;2023-10-08T04:13:09;102396.44;;;15.04;100.00
48968;BME280;46511;53.148;8.204;2023-10-08T04:15:38;102401.66;;;15.07;100.00
48968;BME280;46511;53.148;8.204;2023-10-08T04:18:13;102408.59;;;15.11;100.00
48968;BME280;46511;53.148;8.204;2023-10-08T04:20:40;102413.69;;;14.99;100.00
48968;BME280;46511;53.148;8.204;2023-10-08T04:23:30;102415.84;;;15.09;100.00
48968;BME280;46511;53.148;8.204;2023-10-08T04:26:02;102403.41;;;15.08;100.00
48968;BME280;46511;53.148;8.204;2023-10-08T04:28:34;102409.06;;;15.02;100.00
48968;BME280;46511;53.148;8.204;2023-10-08T04:31:01;102413.09;;;15.11;100.00
48968;BME280;46511;53.148;8.204;2023-10-08T04:33:45;102417.72;;;15.07;100.00
48968;BME280;46511;53.148;8.204;2023-10-08T04:36:18;102428.97;;;15.14;100.00
48968;BME280;46511;53.148;8.204;2023-10-08T04:38:46;102426.69;;;15.06;100.00
48968;BME280;46511;53.148;8.204;2023-10-08T04:41:25;102429.72;;;15.18;100.00
48968;BME280;46511;53.148;8.204;2023-10-08T04:43:59;102434.25;;;14.98;100.00
48968;BME280;46511;53.148;8.204;2023-10-08T04:46:29;102434.72;;;15.06;100.00
48968;BME280;46511;53.148;8.204;2023-10-08T04:49:09;102437.28;;;15.27;100.00
48968;BME280;46511;53.148;8.204;2023-10-08T04:51:45;102439.00;;;15.28;100.00
48968;BME280;46511;53.148;8.204;2023-10-08T04:54:12;102449.69;;;15.10;100.00
48968;BME280;46511;53.148;8.204;2023-10-08T04:56:47;102463.72;;;15.33;100.00
48968;BME280;46511;53.148;8.204;2023-10-08T04:59:15;102470.78;;;15.35;100.00
48968;BME280;46511;53.148;8.204;2023-10-08T05:01:52;102463.25;;;15.25;100.00
48968;BME280;46511;53.148;8.204;2023-10-08T05:04:37;102470.25;;;14.91;100.00
48968;BME280;46511;53.148;8.204;2023-10-08T05:07:19;102483.97;;;15.21;100.00
48968;BME280;46511;53.148;8.204;2023-10-08T05:10:09;102479.91;;;15.12;100.00
48968;BME280;46511;53.148;8.204;2023-10-08T05:12:41;102461.63;;;15.03;100.00
48968;BME280;46511;53.148;8.204;2023-10-08T05:15:32;102456.34;;;15.02;100.00
48968;BME280;46511;53.148;8.204;2023-10-08T05:17:59;102447.00;;;15.10;100.00
48968;BME280;46511;53.148;8.204;2023-10-08T05:20:39;102451.84;;;15.21;100.00
48968;BME280;46511;53.148;8.204;2023-10-08T05:23:27;102449.28;;;15.37;100.00
48968;BME280;46511;53.148;8.204;2023-10-08T05:25:54;102453.97;;;15.32;100.00
48968;BME280;46511;53.148;8.204;2023-10-08T05:28:31;102451.84;;;15.21;100.00
48968;BME280;46511;53.148;8.204;2023-10-08T05:31:07;102450.13;;;15.01;100.00
48968;BME280;46511;53.148;8.204;2023-10-08T05:34:02;102447.78;;;15.12;100.00
48968;BME280;46511;53.148;8.204;2023-10-08T05:36:34;102454.75;;;15.17;100.00
48968;BME280;46511;53.148;8.204;2023-10-08T05:39:25;102443.88;;;15.20;100.00
48968;BME280;46511;53.148;8.204;2023-10-08T05:42:25;102448.03;;;15.25;100.00
48968;BME280;46511;53.148;8.204;2023-10-08T05:44:54;102459.50;;;15.29;100.00
48968;BME280;46511;53.148;8.204;2023-10-08T05:47:40;102458.50;;;15.12;100.00
48968;BME280;46511;53.148;8.204;2023-10-08T05:50:32;102461.84;;;15.18;100.00
48968;BME280;46511;53.148;8.204;2023-10-08T05:53:26;102475.22;;;15.35;100.00
48968;BME280;46511;53.148;8.204;2023-10-08T05:56:14;102482.34;;;15.36;100.00
48968;BME280;46511;53.148;8.204;2023-10-08T05:58:59;102478.25;;;15.46;100.00
48968;BME280;46511;53.148;8.204;2023-10-08T06:01:49;102479.66;;;15.53;100.00
48968;BME280;46511;53.148;8.204;2023-10-08T06:04:24;102487.38;;;15.42;100.00
48968;BME280;46511;53.148;8.204;2023-10-08T06:07:19;102489.59;;;15.51;100.00
48968;BME280;46511;53.148;8.204;2023-10-08T06:10:04;102481.13;;;15.60;100.00
48968;BME280;46511;53.148;8.204;2023-10-08T06:12:57;102490.22;;;15.75;100.00
48968;BME280;46511;53.148;8.204;2023-10-08T06:15:51;102493.75;;;15.76;100.00
48968;BME280;46511;53.148;8.204;2023-10-08T06:18:32;102491.06;;;15.76;100.00
48968;BME280;46511;53.148;8.204;2023-10-08T06:21:04;102486.81;;;15.89;100.00
48968;BME280;46511;53.148;8.204;2023-10-08T06:23:40;102484.50;;;15.81;100.00
48968;BME280;46511;53.148;8.204;2023-10-08T06:26:13;102476.66;;;15.95;100.00
48968;BME280;46511;53.148;8.204;2023-10-08T06:28:44;102475.47;;;15.84;100.00
48968;BME280;46511;53.148;8.204;2023-10-08T06:31:16;102479.72;;;15.88;100.00
48968;BME280;46511;53.148;8.204;2023-10-08T06:33:47;102489.31;;;16.09;100.00
48968;BME280;46511;53.148;8.204;2023-10-08T06:36:20;102490.31;;;16.24;100.00
48968;BME280;46511;53.148;8.204;2023-10-08T06:38:55;102500.84;;;16.11;100.00
48968;BME280;46511;53.148;8.204;2023-10-08T06:41:21;102507.75;;;16.48;100.00
48968;BME280;46511;53.148;8.204;2023-10-08T06:43:59;102513.22;;;16.96;100.00
48968;BME280;46511;53.148;8.204;2023-10-08T06:46:29;102504.13;;;17.91;100.00
48968;BME280;46511;53.148;8.204;2023-10-08T06:49:03;102491.38;;;18.38;100.00
48968;BME280;46511;53.148;8.204;2023-10-08T06:51:42;102495.16;;;19.86;100.00
48968;BME280;46511;53.148;8.204;2023-10-08T06:54:14;102498.13;;;21.56;100.00
48968;BME280;46511;53.148;8.204;2023-10-08T06:56:48;102495.44;;;23.26;100.00
48968;BME280;46511;53.148;8.204;2023-10-08T06:59:22;102502.56;;;24.63;96.93
48968;BME280;46511;53.148;8.204;2023-10-08T07:01:54;102509.03;;;22.25;100.00
48968;BME280;46511;53.148;8.204;2023-10-08T07:04:26;102525.88;;;21.47;100.00
48968;BME280;46511;53.148;8.204;2023-10-08T07:06:52;102539.69;;;20.18;100.00
48968;BME280;46511;53.148;8.204;2023-10-08T07:09:20;102534.38;;;19.23;100.00
48968;BME280;46511;53.148;8.204;2023-10-08T07:12:00;102523.03;;;18.77;100.00
48968;BME280;46511;53.148;8.204;2023-10-08T07:14:36;102515.69;;;18.36;100.00
48968;BME280;46511;53.148;8.204;2023-10-08T07:17:09;102508.97;;;19.27;100.00
48968;BME280;46511;53.148;8.204;2023-10-08T07:19:43;102501.66;;;21.46;100.00
48968;BME280;46511;53.148;8.204;2023-10-08T07:22:18;102509.81;;;23.81;100.00
48968;BME280;46511;53.148;8.204;2023-10-08T07:24:48;102518.66;;;24.25;100.00
48968;BME280;46511;53.148;8.204;2023-10-08T07:27:22;102545.28;;;24.82;94.89
48968;BME280;46511;53.148;8.204;2023-10-08T07:30:01;102539.69;;;24.02;96.94
48968;BME280;46511;53.148;8.204;2023-10-08T07:32:36;102537.13;;;24.52;99.10
48968;BME280;46511;53.148;8.204;2023-10-08T07:35:10;102539.28;;;24.48;93.51
48968;BME280;46511;53.148;8.204;2023-10-08T07:37:46;102544.81;;;24.37;96.98
48968;BME280;46511;53.148;8.204;2023-10-08T07:40:18;102542.31;;;24.55;96.80
48968;BME280;46511;53.148;8.204;2023-10-08T07:42:46;102535.50;;;23.98;98.31
48968;BME280;46511;53.148;8.204;2023-10-08T07:45:17;102530.94;;;22.11;100.00
48968;BME280;46511;53.148;8.204;2023-10-08T07:47:49;102533.34;;;23.48;100.00
48968;BME280;46511;53.148;8.204;2023-10-08T07:50:21;102539.38;;;23.63;100.00
48968;BME280;46511;53.148;8.204;2023-10-08T07:52:47;102539.53;;;23.50;100.00
48968;BME280;46511;53.148;8.204;2023-10-08T07:55:19;102549.94;;;23.98;100.00
48968;BME280;46511;53.148;8.204;2023-10-08T07:57:50;102544.91;;;24.14;99.41
48968;BME280;46511;53.148;8.204;2023-10-08T08:00:16;102552.31;;;24.12;95.82
48968;BME280;46511;53.148;8.204;2023-10-08T08:02:53;102554.16;;;24.74;93.04
48968;BME280;46511;53.148;8.204;2023-10-08T08:05:26;102556.13;;;25.91;88.96
48968;BME280;46511;53.148;8.204;2023-10-08T08:07:57;102564.41;;;27.13;70.22
48968;BME280;46511;53.148;8.204;2023-10-08T08:10:32;102552.09;;;26.05;74.37
48968;BME280;46511;53.148;8.204;2023-10-08T08:13:11;102553.56;;;25.80;78.63
48968;BME280;46511;53.148;8.204;2023-10-08T08:15:42;102571.06;;;24.88;90.86
48968;BME280;46511;53.148;8.204;2023-10-08T08:18:14;102575.75;;;25.76;82.92
48968;BME280;46511;53.148;8.204;2023-10-08T08:20:48;102579.50;;;24.85;82.73
48968;BME280;46511;53.148;8.204;2023-10-08T08:23:20;102582.59;;;24.08;85.60
48968;BME280;46511;53.148;8.204;2023-10-08T08:25:52;102587.53;;;24.23;83.51
48968;BME280;46511;53.148;8.204;2023-10-08T08:28:38;102590.06;;;25.58;80.48
48968;BME280;46511;53.148;8.204;2023-10-08T08:31:10;102594.25;;;25.72;80.40
48968;BME280;46511;53.148;8.204;2023-10-08T08:33:42;102609.22;;;24.76;85.95
48968;BME280;46511;53.148;8.204;2023-10-08T08:36:30;102612.34;;;25.33;76.29
48968;BME280;46511;53.148;8.204;2023-10-08T08:39:05;102617.16;;;24.38;83.61
48968;BME280;46511;53.148;8.204;2023-10-08T08:41:39;102612.22;;;24.73;77.48
48968;BME280;46511;53.148;8.204;2023-10-08T08:44:11;102615.63;;;25.37;79.56
48968;BME280;46511;53.148;8.204;2023-10-08T08:46:39;102605.00;;;25.93;68.97
48968;BME280;46511;53.148;8.204;2023-10-08T08:49:11;102605.69;;;27.73;60.57
48968;BME280;46511;53.148;8.204;2023-10-08T08:51:43;102607.66;;;27.08;57.21
48968;BME280;46511;53.148;8.204;2023-10-08T08:54:14;102593.03;;;25.46;65.20
48968;BME280;46511;53.148;8.204;2023-10-08T08:56:47;102583.59;;;27.84;64.79
48968;BME280;46511;53.148;8.204;2023-10-08T08:59:19;102586.34;;;28.71;56.71
48968;BME280;46511;53.148;8.204;2023-10-08T09:01:51;102579.56;;;27.88;49.31
48968;BME280;46511;53.148;8.204;2023-10-08T09:04:27;102579.53;;;30.66;47.21
48968;BME280;46511;53.148;8.204;2023-10-08T09:07:00;102580.59;;;29.67;44.86
48968;BME280;46511;53.148;8.204;2023-10-08T09:09:35;102578.47;;;27.81;47.16
48968;BME280;46511;53.148;8.204;2023-10-08T09:12:10;102596.56;;;26.82;54.83
48968;BME280;46511;53.148;8.204;2023-10-08T09:14:41;102600.16;;;28.70;47.83
48968;BME280;46511;53.148;8.204;2023-10-08T09:17:16;102595.16;;;29.25;45.76
48968;BME280;46511;53.148;8.204;2023-10-08T09:19:43;102598.09;;;28.20;50.61
48968;BME280;46511;53.148;8.204;2023-10-08T09:22:14;102592.84;;;25.28;51.08
48968;BME280;46511;53.148;8.204;2023-10-08T09:24:47;102597.38;;;23.83;62.82
48968;BME280;46511;53.148;8.204;2023-10-08T09:27:18;102625.09;;;22.76;62.60
48968;BME280;46511;53.148;8.204;2023-10-08T09:29:50;102634.97;;;22.88;68.24
48968;BME280;46511;53.148;8.204;2023-10-08T09:32:21;102659.25;;;21.95;85.63
48968;BME280;46511;53.148;8.204;2023-10-08T09:34:56;102664.38;;;22.35;74.37
48968;BME280;46511;53.148;8.204;2023-10-08T09:37:24;102644.94;;;22.30;85.88
48968;BME280;46511;53.148;8.204;2023-10-08T09:39:55;102624.09;;;21.22;77.33
48968;BME280;46511;53.148;8.204;2023-10-08T09:42:28;102622.19;;;22.55;77.60
48968;BME280;46511;53.148;8.204;2023-10-08T09:45:01;102643.00;;;23.12;70.89
48968;BME280;46511;53.148;8.204;2023-10-08T09:47:38;102631.78;;;22.94;71.98
48968;BME280;46511;53.148;8.204;2023-10-08T09:50:08;102620.19;;;22.92;87.90
48968;BME280;46511;53.148;8.204;2023-10-08T09:55:12;102639.97;;;22.24;80.81
48968;BME280;46511;53.148;8.204;2023-10-08T09:57:40;102634.41;;;22.14;78.53
48968;BME280;46511;53.148;8.204;2023-10-08T10:00:12;102622.41;;;23.32;73.58
48968;BME280;46511;53.148;8.204;2023-10-08T10:02:41;102644.28;;;26.95;58.57
48968;BME280;46511;53.148;8.204;2023-10-08T10:05:19;102627.47;;;25.85;58.37
48968;BME280;46511;53.148;8.204;2023-10-08T10:07:55;102627.50;;;25.35;55.78
48968;BME280;46511;53.148;8.204;2023-10-08T10:10:27;102614.47;;;22.73;58.46
48968;BME280;46511;53.148;8.204;2023-10-08T10:12:58;102642.25;;;21.70;64.81
48968;BME280;46511;53.148;8.204;2023-10-08T10:15:25;102607.78;;;21.11;74.73
48968;BME280;46511;53.148;8.204;2023-10-08T10:18:12;102642.97;;;22.32;72.87
48968;BME280;46511;53.148;8.204;2023-10-08T10:20:51;102603.94;;;22.35;66.17
48968;BME280;46511;53.148;8.204;2023-10-08T10:23:34;102635.09;;;22.98;63.06
48968;BME280;46511;53.148;8.204;2023-10-08T10:26:32;102655.81;;;22.52;59.71
48968;BME280;46511;53.148;8.204;2023-10-08T10:29:20;102664.41;;;22.93;65.54
48968;BME280;46511;53.148;8.204;2023-10-08T10:31:53;102656.78;;;22.87;60.66
48968;BME280;46511;53.148;8.204;2023-10-08T10:34:28;102650.84;;;23.71;60.97
48968;BME280;46511;53.148;8.204;2023-10-08T10:37:00;102649.78;;;23.06;61.13
48968;BME280;46511;53.148;8.204;2023-10-08T10:39:39;102646.09;;;23.84;58.16
48968;BME280;46511;53.148;8.204;2023-10-08T10:42:07;102642.28;;;25.43;51.12
48968;BME280;46511;53.148;8.204;2023-10-08T10:44:51;102620.72;;;30.25;39.85
48968;BME280;46511;53.148;8.204;2023-10-08T10:47:24;102629.94;;;30.40;40.66
48968;BME280;46511;53.148;8.204;2023-10-08T10:49:54;102616.88;;;33.63;31.71
48968;BME280;46511;53.148;8.204;2023-10-08T10:52:27;102637.38;;;29.49;35.76
48968;BME280;46511;53.148;8.204;2023-10-08T10:55:17;102650.78;;;28.92;38.04
48968;BME280;46511;53.148;8.204;2023-10-08T10:57:52;102657.19;;;27.40;47.32
48968;BME280;46511;53.148;8.204;2023-10-08T11:00:42;102650.63;;;25.51;45.02
48968;BME280;46511;53.148;8.204;2023-10-08T11:03:13;102655.38;;;24.46;48.39
48968;BME280;46511;53.148;8.204;2023-10-08T11:05:49;102644.50;;;24.46;48.42
48968;BME280;46511;53.148;8.204;2023-10-08T11:08:21;102652.16;;;23.88;58.10
48968;BME280;46511;53.148;8.204;2023-10-08T11:10:49;102643.78;;;23.57;58.49
48968;BME280;46511;53.148;8.204;2023-10-08T11:13:18;102634.69;;;23.47;61.98
48968;BME280;46511;53.148;8.204;2023-10-08T11:15:51;102631.84;;;24.03;57.51
48968;BME280;46511;53.148;8.204;2023-10-08T11:18:23;102635.47;;;23.16;61.85
48968;BME280;46511;53.148;8.204;2023-10-08T11:21:05;102629.66;;;23.20;62.07
48968;BME280;46511;53.148;8.204;2023-10-08T11:23:45;102624.44;;;22.72;62.30
48968;BME280;46511;53.148;8.204;2023-10-08T11:26:23;102619.91;;;22.73;68.15
48968;BME280;46511;53.148;8.204;2023-10-08T11:29:13;102615.34;;;23.29;68.49
48968;BME280;46511;53.148;8.204;2023-10-08T11:31:56;102605.63;;;22.71;75.06
48968;BME280;46511;53.148;8.204;2023-10-08T11:34:33;102615.97;;;22.66;70.45
48968;BME280;46511;53.148;8.204;2023-10-08T11:37:10;102614.78;;;24.75;61.64
48968;BME280;46511;53.148;8.204;2023-10-08T11:39:50;102607.97;;;24.90;53.52
48968;BME280;46511;53.148;8.204;2023-10-08T11:42:24;102606.00;;;24.41;55.63
48968;BME280;46511;53.148;8.204;2023-10-08T11:45:05;102586.78;;;26.03;44.98
48968;BME280;46511;53.148;8.204;2023-10-08T11:47:55;102568.13;;;26.18;43.77
48968;BME280;46511;53.148;8.204;2023-10-08T11:50:32;102561.88;;;24.28;48.60
48968;BME280;46511;53.148;8.204;2023-10-08T11:53:05;102563.84;;;22.62;52.22
48968;BME280;46511;53.148;8.204;2023-10-08T11:55:37;102554.75;;;22.06;57.18
48968;BME280;46511;53.148;8.204;2023-10-08T11:58:09;102552.78;;;23.10;52.53
48968;BME280;46511;53.148;8.204;2023-10-08T12:00:42;102550.22;;;22.97;53.17
48968;BME280;46511;53.148;8.204;2023-10-08T12:03:16;102547.78;;;23.60;51.43
48968;BME280;46511;53.148;8.204;2023-10-08T12:05:51;102558.06;;;25.01;51.64
48968;BME280;46511;53.148;8.204;2023-10-08T12:08:29;102582.09;;;26.62;45.14
48968;BME280;46511;53.148;8.204;2023-10-08T12:11:01;102576.00;;;29.25;37.95
48968;BME280;46511;53.148;8.204;2023-10-08T12:13:32;102590.03;;;29.22;37.41
48968;BME280;46511;53.148;8.204;2023-10-08T12:16:04;102590.63;;;28.74;38.35
48968;BME280;46511;53.148;8.204;2023-10-08T12:18:47;102597.13;;;25.71;44.56
48968;BME280;46511;53.148;8.204;2023-10-08T12:21:15;102607.75;;;24.72;48.66
48968;BME280;46511;53.148;8.204;2023-10-08T12:23:43;102617.00;;;24.91;46.26
48968;BME280;46511;53.148;8.204;2023-10-08T12:26:16;102607.19;;;24.48;49.22
48968;BME280;46511;53.148;8.204;2023-10-08T12:28:50;102597.97;;;24.91;45.90
48968;BME280;46511;53.148;8.204;2023-10-08T12:31:17;102583.00;;;26.33;45.41
48968;BME280;46511;53.148;8.204;2023-10-08T12:33:53;102580.09;;;28.53;38.75
48968;BME280;46511;53.148;8.204;2023-10-08T12:36:24;102582.22;;;28.24;37.88
48968;BME280;46511;53.148;8.204;2023-10-08T12:38:57;102599.06;;;27.30;39.34
48968;BME280;46511;53.148;8.204;2023-10-08T12:41:28;102608.34;;;25.47;43.38
48968;BME280;46511;53.148;8.204;2023-10-08T12:43:56;102600.69;;;25.81;41.64
48968;BME280;46511;53.148;8.204;2023-10-08T12:46:29;102596.22;;;24.80;44.69
48968;BME280;46511;53.148;8.204;2023-10-08T12:49:02;102592.13;;;24.44;45.62
48968;BME280;46511;53.148;8.204;2023-10-08T12:51:33;102596.94;;;25.03;44.41
48968;BME280;46511;53.148;8.204;2023-10-08T12:54:06;102599.97;;;24.05;46.55
48968;BME280;46511;53.148;8.204;2023-10-08T12:56:38;102584.53;;;25.29;44.84
48968;BME280;46511;53.148;8.204;2023-10-08T12:59:16;102555.69;;;27.27;40.85
48968;BME280;46511;53.148;8.204;2023-10-08T13:01:54;102549.44;;;28.24;37.99
48968;BME280;46511;53.148;8.204;2023-10-08T13:04:26;102564.41;;;26.38;40.96
48968;BME280;46511;53.148;8.204;2023-10-08T13:06:57;102566.66;;;28.94;37.79
48968;BME280;46511;53.148;8.204;2023-10-08T13:09:32;102575.38;;;29.40;35.92
48968;BME280;46511;53.148;8.204;2023-10-08T13:12:07;102566.91;;;30.16;34.81
48968;BME280;46511;53.148;8.204;2023-10-08T13:14:41;102560.22;;;29.86;34.66
48968;BME280;46511;53.148;8.204;2023-10-08T13:17:15;102572.41;;;26.50;40.97
48968;BME280;46511;53.148;8.204;2023-10-08T13:19:47;102574.94;;;29.10;37.70
48968;BME280;46511;53.148;8.204;2023-10-08T13:22:18;102573.16;;;30.74;34.94
48968;BME280;46511;53.148;8.204;2023-10-08T13:24:45;102587.84;;;28.92;35.63
48968;BME280;46511;53.148;8.204;2023-10-08T13:27:18;102594.56;;;28.80;35.69